Time;durP1;ratioP1;P1;durP2;ratioP2;P2;SDS_P1;SDS_P2;PMS_P1;PMS_P2;Temp;Humidity;BMP_temperature;BMP_pressure;BME280_temperature;BME280_humidity;BME280_pressure;Samples;Min_cycle;Max_cycle;Signal;HPM_P1;HPM_P2
2023/01/24 00:00:57;;;;;;;;;;;15.50;47.30;;;;;;5084767;28;19944;-80
2023/01/24 00:03:23;;;;;;;;;;;15.50;47.30;;;;;;5085306;28;19930;-80
2023/01/24 00:05:49;;;;;;;;;;;15.50;47.30;;;;;;5084952;28;19912;-80
2023/01/24 00:08:15;;;;;;;;;;;15.50;47.40;;;;;;5102784;28;20182;-80
2023/01/24 00:10:41;;;;;;;;;;;15.40;47.30;;;;;;5084346;28;20281;-80
2023/01/24 00:13:09;;;;;;;;;;;15.40;47.30;;;;;;5084410;28;20004;-80
2023/01/24 00:15:35;;;;;;;;;;;15.40;47.40;;;;;;5085003;28;19919;-80
2023/01/24 00:18:00;;;;;;;;;;;15.40;47.40;;;;;;5101931;28;19908;-80
2023/01/24 00:20:26;;;;;;;;;;;15.30;47.40;;;;;;5101209;28;19915;-80
2023/01/24 00:22:52;;;;;;;;;;;15.30;47.40;;;;;;5101564;28;19923;-80
2023/01/24 00:25:17;;;;;;;;;;;15.30;47.40;;;;;;5100826;28;19912;-80
2023/01/24 00:27:43;;;;;;;;;;;15.20;47.40;;;;;;5083045;28;19959;-81
2023/01/24 00:30:28;;;;;;;;;;;15.20;47.40;;;;;;5082315;28;20171;-81
2023/01/24 00:32:54;;;;;;;;;;;15.20;47.40;;;;;;5081883;28;19915;-81
2023/01/24 00:35:19;;;;;;;;;;;15.20;47.40;;;;;;5099887;28;20007;-80
2023/01/24 00:37:45;;;;;;;;;;;15.20;47.40;;;;;;5100212;28;19908;-80
2023/01/24 00:40:12;;;;;;;;;;;15.10;47.40;;;;;;5084475;28;20270;-80
2023/01/24 00:42:37;;;;;;;;;;;15.10;47.50;;;;;;5085971;28;20002;-80
2023/01/24 00:45:03;;;;;;;;;;;15.10;47.40;;;;;;5084993;28;19966;-80
2023/01/24 00:47:28;;;;;;;;;;;15.10;47.50;;;;;;5085012;28;19954;-80
2023/01/24 00:49:55;;;;;;;;;;;15.00;47.50;;;;;;5085545;28;19916;-80
2023/01/24 00:52:21;;;;;;;;;;;15.10;47.60;;;;;;5084733;28;19908;-80
2023/01/24 00:54:47;;;;;;;;;;;15.00;47.60;;;;;;5101859;28;19918;-80
2023/01/24 00:57:13;;;;;;;;;;;15.00;47.60;;;;;;5084368;28;19970;-80
2023/01/24 00:59:48;;;;;;;;;;;14.90;47.60;;;;;;5084355;28;19911;-80
2023/01/24 01:02:13;;;;;;;;;;;14.80;47.60;;;;;;5085493;28;19908;-80
2023/01/24 01:04:39;;;;;;;;;;;14.80;47.70;;;;;;5102942;28;19916;-80
2023/01/24 01:07:04;;;;;;;;;;;14.80;47.70;;;;;;5073119;28;20235;-80
2023/01/24 01:09:31;;;;;;;;;;;14.70;47.70;;;;;;5073064;28;19919;-80
2023/01/24 01:11:57;;;;;;;;;;;14.70;47.70;;;;;;5082960;28;19957;-80
2023/01/24 01:14:22;;;;;;;;;;;14.70;47.70;;;;;;5081810;28;19916;-80
2023/01/24 01:16:48;;;;;;;;;;;14.70;47.80;;;;;;5082834;28;19915;-80
2023/01/24 01:19:23;;;;;;;;;;;14.60;47.80;;;;;;5100969;28;19908;-80
2023/01/24 01:21:49;;;;;;;;;;;14.50;47.80;;;;;;5083088;28;19908;-81
2023/01/24 01:24:15;;;;;;;;;;;14.50;47.80;;;;;;5083237;28;19915;-81
2023/01/24 01:26:41;;;;;;;;;;;14.50;47.80;;;;;;5083165;28;19908;-81
2023/01/24 01:29:13;;;;;;;;;;;14.40;47.80;;;;;;5099975;28;19912;-80
2023/01/24 01:31:38;;;;;;;;;;;14.40;47.90;;;;;;5100004;28;19908;-80
2023/01/24 01:34:04;;;;;;;;;;;14.30;47.90;;;;;;5081809;28;19927;-80
2023/01/24 01:36:29;;;;;;;;;;;14.30;47.90;;;;;;5082968;28;19919;-80
2023/01/24 01:38:56;;;;;;;;;;;14.30;48.00;;;;;;5082779;28;19977;-80
2023/01/24 01:41:22;;;;;;;;;;;14.20;48.00;;;;;;5083361;28;20294;-80
2023/01/24 01:46:55;;;;;;;;;;;14.20;48.00;;;;;;5100711;28;19915;-80
2023/01/24 01:49:24;;;;;;;;;;;14.10;48.10;;;;;;5097407;28;19912;-80
2023/01/24 01:51:52;;;;;;;;;;;14.10;48.10;;;;;;5098339;28;20006;-80
2023/01/24 01:54:23;;;;;;;;;;;14.00;48.10;;;;;;5082172;28;19909;-80
2023/01/24 01:57:04;;;;;;;;;;;14.00;48.10;;;;;;5081875;28;19961;-80
2023/01/24 01:59:32;;;;;;;;;;;14.00;48.20;;;;;;5099199;28;19908;-80
2023/01/24 02:01:58;;;;;;;;;;;13.90;48.20;;;;;;5081337;28;19908;-80
2023/01/24 02:04:26;;;;;;;;;;;13.90;48.20;;;;;;5080914;28;19908;-80
2023/01/24 02:07:11;;;;;;;;;;;13.80;48.10;;;;;;5079622;28;19908;-80
2023/01/24 02:09:38;;;;;;;;;;;13.80;48.10;;;;;;5082872;28;19913;-80
2023/01/24 02:12:06;;;;;;;;;;;13.70;48.20;;;;;;5101605;28;20486;-80
2023/01/24 02:17:20;;;;;;;;;;;13.70;48.20;;;;;;5101278;28;19915;-80
2023/01/24 02:20:05;;;;;;;;;;;13.60;48.20;;;;;;5100524;28;19915;-80
2023/01/24 02:22:50;;;;;;;;;;;13.60;48.20;;;;;;5081873;28;20010;-80
2023/01/24 02:25:25;;;;;;;;;;;13.50;48.20;;;;;;5082286;28;20015;-80
2023/01/24 02:27:51;;;;;;;;;;;13.50;48.30;;;;;;5099646;28;19912;-80
2023/01/24 02:30:16;;;;;;;;;;;13.50;48.20;;;;;;5099298;28;19952;-80
2023/01/24 02:32:42;;;;;;;;;;;13.50;48.30;;;;;;5100609;28;19915;-80
2023/01/24 02:35:21;;;;;;;;;;;13.40;48.20;;;;;;5083198;28;19916;-80
2023/01/24 02:37:46;;;;;;;;;;;13.40;48.20;;;;;;5083315;28;19944;-80
2023/01/24 02:40:12;;;;;;;;;;;13.40;48.20;;;;;;5083677;28;19938;-80
2023/01/24 02:42:38;;;;;;;;;;;13.30;48.20;;;;;;5083265;28;19919;-80
2023/01/24 02:45:04;;;;;;;;;;;13.30;48.30;;;;;;5083866;28;19909;-80
2023/01/24 02:47:32;;;;;;;;;;;13.20;48.30;;;;;;5100899;28;20003;-80
2023/01/24 02:49:59;;;;;;;;;;;13.20;48.30;;;;;;5083458;28;19908;-80
2023/01/24 02:55:14;;;;;;;;;;;13.10;48.30;;;;;;5100846;28;19918;-80
2023/01/24 03:00:26;;;;;;;;;;;13.10;48.40;;;;;;5104759;28;19919;-80
2023/01/24 03:02:52;;;;;;;;;;;13.10;48.40;;;;;;5104256;28;19916;-80
2023/01/24 03:05:17;;;;;;;;;;;13.20;48.30;;;;;;5086820;28;19908;-80
2023/01/24 03:07:44;;;;;;;;;;;13.20;48.30;;;;;;5086145;28;19912;-80
2023/01/24 03:10:22;;;;;;;;;;;13.20;48.20;;;;;;5086544;28;19958;-80
2023/01/24 03:34:51;;;;;;;;;;;13.30;48.10;;;;;;5104693;28;19977;-79
2023/01/24 03:39:53;;;;;;;;;;;13.30;48.10;;;;;;5087670;28;20007;-80
2023/01/24 03:40:04;;;;;;;;;;;13.20;48.10;;;;;;5104797;28;19908;-80
2023/01/24 03:42:46;;;;;;;;;;;13.20;48.10;;;;;;5105455;28;19913;-80
2023/01/24 03:45:15;;;;;;;;;;;13.10;48.10;;;;;;5087263;28;19909;-80
2023/01/24 03:47:45;;;;;;;;;;;13.10;48.20;;;;;;5086409;28;19913;-80
2023/01/24 03:52:56;;;;;;;;;;;13.10;48.20;;;;;;5103445;28;19914;-80
2023/01/24 03:55:21;;;;;;;;;;;13.10;48.20;;;;;;5086650;28;19908;-80
2023/01/24 03:57:47;;;;;;;;;;;13.00;48.20;;;;;;5086595;28;20144;-80
2023/01/24 04:00:13;;;;;;;;;;;13.00;48.20;;;;;;5085762;28;19908;-80
2023/01/24 04:02:40;;;;;;;;;;;13.00;48.20;;;;;;5086435;28;20003;-80
2023/01/24 04:05:15;;;;;;;;;;;12.90;48.30;;;;;;5102707;28;19908;-80
2023/01/24 04:07:41;;;;;;;;;;;12.90;48.30;;;;;;5084952;28;19916;-80
2023/01/24 04:10:08;;;;;;;;;;;12.90;48.40;;;;;;5084833;28;19908;-80
2023/01/24 04:12:34;;;;;;;;;;;12.80;48.40;;;;;;5103146;28;19912;-80
2023/01/24 04:14:59;;;;;;;;;;;12.80;48.50;;;;;;5085390;28;19908;-80
2023/01/24 04:17:25;;;;;;;;;;;12.70;48.50;;;;;;5084664;28;19908;-80
2023/01/24 04:19:52;;;;;;;;;;;12.70;48.50;;;;;;5102531;28;19908;-80
2023/01/24 04:22:17;;;;;;;;;;;13.40;48.20;;;;;;5084989;28;19973;-80
2023/01/24 04:24:44;;;;;;;;;;;14.00;47.40;;;;;;5085622;28;19907;-80
2023/01/24 04:27:10;;;;;;;;;;;14.40;46.80;;;;;;5084983;28;20279;-79
2023/01/24 04:29:39;;;;;;;;;;;14.60;46.80;;;;;;5084400;28;20007;-80
2023/01/24 04:32:04;;;;;;;;;;;14.80;46.20;;;;;;5085265;28;20254;-80
2023/01/24 04:34:30;;;;;;;;;;;15.00;46.00;;;;;;5101773;28;19927;-80
2023/01/24 04:36:55;;;;;;;;;;;15.20;46.10;;;;;;5083747;28;20508;-80
2023/01/24 04:39:21;;;;;;;;;;;15.50;45.50;;;;;;5083053;28;19920;-80
2023/01/24 04:41:47;;;;;;;;;;;15.80;45.10;;;;;;5083171;28;19915;-80
2023/01/24 04:44:12;;;;;;;;;;;16.10;44.80;;;;;;5082304;28;19941;-80
2023/01/24 04:46:38;;;;;;;;;;;16.40;44.60;;;;;;5098573;28;19908;-80
2023/01/24 04:49:04;;;;;;;;;;;16.60;44.30;;;;;;5081843;28;19969;-80
2023/01/24 04:51:29;;;;;;;;;;;16.70;44.20;;;;;;5082023;28;20082;-80
2023/01/24 04:53:55;;;;;;;;;;;16.70;44.20;;;;;;5099583;28;19915;-80
2023/01/24 04:56:21;;;;;;;;;;;17.00;44.10;;;;;;5082022;28;19912;-81
2023/01/24 04:58:48;;;;;;;;;;;17.20;43.90;;;;;;5081031;28;20239;-81
2023/01/24 05:01:13;;;;;;;;;;;17.30;43.80;;;;;;5099220;28;20003;-81
2023/01/24 05:03:39;;;;;;;;;;;17.30;43.60;;;;;;5102463;28;20386;-79
2023/01/24 05:06:04;;;;;;;;;;;17.40;43.60;;;;;;5084473;28;19919;-79
2023/01/24 05:08:30;;;;;;;;;;;17.50;43.50;;;;;;5084019;28;19927;-80
2023/01/24 05:10:59;;;;;;;;;;;17.60;43.50;;;;;;5084637;28;19915;-80
2023/01/24 05:13:25;;;;;;;;;;;17.70;43.50;;;;;;5084007;28;19908;-80
2023/01/24 05:15:51;;;;;;;;;;;17.80;43.30;;;;;;5082915;28;19908;-80
2023/01/24 05:18:19;;;;;;;;;;;17.90;43.20;;;;;;5082902;28;19966;-80
2023/01/24 05:20:45;;;;;;;;;;;18.00;43.10;;;;;;5101885;28;19947;-80
2023/01/24 05:23:10;;;;;;;;;;;18.10;43.10;;;;;;5081776;28;19916;-80
2023/01/24 05:25:36;;;;;;;;;;;18.10;43.10;;;;;;5098941;28;19908;-80
2023/01/24 05:28:04;;;;;;;;;;;18.10;43.00;;;;;;5080726;28;19912;-80
2023/01/24 05:30:29;;;;;;;;;;;18.20;43.00;;;;;;5097936;28;19908;-80
2023/01/24 05:32:55;;;;;;;;;;;18.30;42.90;;;;;;5097921;28;20171;-80
2023/01/24 05:35:21;;;;;;;;;;;18.30;42.80;;;;;;5080533;28;19927;-80
2023/01/24 05:37:47;;;;;;;;;;;18.40;42.80;;;;;;5079805;28;19908;-80
2023/01/24 05:40:12;;;;;;;;;;;18.50;42.80;;;;;;5098317;28;19908;-81
2023/01/24 05:42:39;;;;;;;;;;;18.50;42.80;;;;;;5079970;28;19946;-81
2023/01/24 05:45:05;;;;;;;;;;;18.50;42.80;;;;;;5096717;28;20309;-81
2023/01/24 05:47:31;;;;;;;;;;;18.50;42.90;;;;;;5081608;28;19912;-81
2023/01/24 05:49:57;;;;;;;;;;;18.50;42.90;;;;;;5080924;28;19908;-81
2023/01/24 05:52:22;;;;;;;;;;;18.60;42.90;;;;;;5080914;28;19951;-81
2023/01/24 05:54:48;;;;;;;;;;;18.70;42.80;;;;;;5097860;28;19908;-81
2023/01/24 05:57:17;;;;;;;;;;;18.80;42.70;;;;;;5082142;28;19908;-81
2023/01/24 05:59:43;;;;;;;;;;;18.80;42.60;;;;;;5080577;28;19919;-81
2023/01/24 06:02:09;;;;;;;;;;;18.80;42.70;;;;;;5078464;28;20503;-81
2023/01/24 06:04:34;;;;;;;;;;;18.80;42.70;;;;;;5079284;28;20413;-80
2023/01/24 06:07:00;;;;;;;;;;;18.80;42.70;;;;;;5081104;28;19964;-81
2023/01/24 06:09:28;;;;;;;;;;;18.80;42.70;;;;;;5081423;28;20206;-83
2023/01/24 06:11:54;;;;;;;;;;;18.90;42.70;;;;;;5078926;28;19909;-81
2023/01/24 06:14:19;;;;;;;;;;;19.00;42.70;;;;;;5078854;28;20249;-80
2023/01/24 06:16:45;;;;;;;;;;;19.20;42.70;;;;;;5078301;28;20266;-81
2023/01/24 06:19:13;;;;;;;;;;;19.20;42.60;;;;;;5077718;28;19908;-81
2023/01/24 06:21:43;;;;;;;;;;;19.10;42.50;;;;;;5078128;28;20071;-81
2023/01/24 06:24:13;;;;;;;;;;;19.10;42.50;;;;;;5077481;28;19908;-80
2023/01/24 06:26:40;;;;;;;;;;;19.10;42.70;;;;;;5075802;28;19966;-80
2023/01/24 06:29:06;;;;;;;;;;;19.00;42.60;;;;;;5095871;28;19912;-80
2023/01/24 06:31:47;;;;;;;;;;;19.00;42.80;;;;;;5080032;28;19908;-80
2023/01/24 06:34:21;;;;;;;;;;;19.00;42.80;;;;;;5081291;28;19916;-80
2023/01/24 06:36:47;;;;;;;;;;;19.10;42.70;;;;;;5081281;28;20300;-80
2023/01/24 06:39:16;;;;;;;;;;;19.20;42.70;;;;;;5079215;28;19915;-80
2023/01/24 06:41:42;;;;;;;;;;;19.20;42.70;;;;;;5078736;28;20403;-81
2023/01/24 06:44:11;;;;;;;;;;;19.10;42.70;;;;;;5095151;28;19916;-82
2023/01/24 06:46:38;;;;;;;;;;;19.10;42.80;;;;;;5078432;28;19916;-81
2023/01/24 06:49:04;;;;;;;;;;;19.10;42.80;;;;;;5096678;28;19970;-80
2023/01/24 06:51:29;;;;;;;;;;;19.00;42.80;;;;;;5091356;28;20199;-80
2023/01/24 06:53:55;;;;;;;;;;;19.10;42.90;;;;;;5088686;28;20246;-80
2023/01/24 06:56:20;;;;;;;;;;;19.10;42.80;;;;;;5071566;28;19919;-80
2023/01/24 06:58:47;;;;;;;;;;;19.10;42.90;;;;;;5073539;28;20421;-80
2023/01/24 07:01:12;;;;;;;;;;;19.00;42.90;;;;;;5072895;28;20023;-80
2023/01/24 07:03:38;;;;;;;;;;;19.00;42.90;;;;;;5073027;28;19973;-81
2023/01/24 07:06:04;;;;;;;;;;;18.90;42.90;;;;;;5073569;28;19908;-80
2023/01/24 07:08:30;;;;;;;;;;;18.80;43.10;;;;;;5072334;28;19916;-81
2023/01/24 07:10:58;;;;;;;;;;;18.60;43.20;;;;;;5071292;28;19919;-80
2023/01/24 07:13:24;;;;;;;;;;;18.50;43.30;;;;;;5073299;28;19908;-80
2023/01/24 07:15:50;;;;;;;;;;;18.30;43.50;;;;;;5075213;28;19923;-80
2023/01/24 07:18:17;;;;;;;;;;;18.10;43.60;;;;;;5091797;28;19981;-80
2023/01/24 07:20:42;;;;;;;;;;;18.00;43.80;;;;;;5072440;28;19915;-80
2023/01/24 07:23:29;;;;;;;;;;;17.90;43.90;;;;;;5072478;28;19908;-80
2023/01/24 07:25:55;;;;;;;;;;;18.10;43.90;;;;;;5089290;28;19969;-80
2023/01/24 07:28:20;;;;;;;;;;;18.40;43.70;;;;;;5088603;28;19924;-80
2023/01/24 07:30:47;;;;;;;;;;;18.60;43.40;;;;;;5069797;28;19913;-80
2023/01/24 07:33:13;;;;;;;;;;;18.80;43.20;;;;;;5088980;28;20221;-80
2023/01/24 07:35:39;;;;;;;;;;;18.90;43.10;;;;;;5069887;28;20193;-80
2023/01/24 07:38:05;;;;;;;;;;;19.00;43.10;;;;;;5089093;28;19916;-80
2023/01/24 07:40:31;;;;;;;;;;;19.00;43.10;;;;;;5074937;28;19908;-80
2023/01/24 07:43:00;;;;;;;;;;;19.10;43.10;;;;;;5071142;28;19915;-80
2023/01/24 07:45:26;;;;;;;;;;;19.10;43.10;;;;;;5089874;28;20281;-80
2023/01/24 07:47:56;;;;;;;;;;;19.10;43.10;;;;;;5074276;28;19912;-80
2023/01/24 07:50:22;;;;;;;;;;;19.00;43.10;;;;;;5073110;28;19919;-81
2023/01/24 07:52:51;;;;;;;;;;;19.00;43.20;;;;;;5092602;28;19909;-81
2023/01/24 07:55:17;;;;;;;;;;;19.00;43.30;;;;;;5073727;28;19908;-81
2023/01/24 07:57:43;;;;;;;;;;;19.00;43.30;;;;;;5090865;28;20201;-81
2023/01/24 08:00:09;;;;;;;;;;;19.00;43.20;;;;;;5072621;28;20250;-81
2023/01/24 08:02:34;;;;;;;;;;;19.00;43.20;;;;;;5071280;28;20059;-81
2023/01/24 08:05:00;;;;;;;;;;;18.90;43.30;;;;;;5092866;28;20004;-81
2023/01/24 08:07:26;;;;;;;;;;;18.90;43.30;;;;;;5079127;28;19940;-81
2023/01/24 08:09:54;;;;;;;;;;;18.90;43.20;;;;;;5096888;28;19991;-81
2023/01/24 08:12:20;;;;;;;;;;;19.00;43.30;;;;;;5079457;28;19952;-80
2023/01/24 08:14:45;;;;;;;;;;;19.00;43.20;;;;;;5078234;28;19962;-80
2023/01/24 08:17:11;;;;;;;;;;;19.00;43.20;;;;;;5078702;28;19980;-80
2023/01/24 08:19:39;;;;;;;;;;;19.00;43.30;;;;;;5077557;28;19922;-80
2023/01/24 08:22:05;;;;;;;;;;;18.90;43.30;;;;;;5094044;28;19908;-80
2023/01/24 08:24:31;;;;;;;;;;;18.90;43.30;;;;;;5069220;28;19908;-80
2023/01/24 08:26:56;;;;;;;;;;;18.90;43.20;;;;;;5068858;28;20075;-80
2023/01/24 08:29:22;;;;;;;;;;;18.90;43.10;;;;;;5087204;28;19938;-80
2023/01/24 08:31:48;;;;;;;;;;;18.90;43.20;;;;;;5077992;28;19908;-80
2023/01/24 08:34:13;;;;;;;;;;;18.90;43.10;;;;;;5095903;28;20063;-80
2023/01/24 08:36:39;;;;;;;;;;;18.90;43.30;;;;;;5096006;28;20393;-80
2023/01/24 08:39:04;;;;;;;;;;;18.90;43.20;;;;;;5076019;28;19908;-80
2023/01/24 08:41:30;;;;;;;;;;;18.90;43.30;;;;;;5086730;28;19912;-80
2023/01/24 08:43:55;;;;;;;;;;;18.80;43.40;;;;;;5070372;28;19908;-80
2023/01/24 08:46:22;;;;;;;;;;;18.80;43.40;;;;;;5069958;28;20551;-81
2023/01/24 08:48:47;;;;;;;;;;;18.70;43.40;;;;;;5069526;28;19939;-81
2023/01/24 08:51:13;;;;;;;;;;;18.70;43.40;;;;;;5069160;28;20266;-81
2023/01/24 08:53:38;;;;;;;;;;;18.60;43.40;;;;;;5068400;28;20068;-81
2023/01/24 08:56:04;;;;;;;;;;;18.60;43.40;;;;;;5068768;28;20181;-81
2023/01/24 08:58:32;;;;;;;;;;;18.60;43.50;;;;;;5086384;28;19924;-81
2023/01/24 09:00:57;;;;;;;;;;;18.60;43.50;;;;;;5067851;28;19950;-81
2023/01/24 09:03:23;;;;;;;;;;;18.60;43.50;;;;;;5067138;28;19951;-80
2023/01/24 09:05:48;;;;;;;;;;;18.60;43.50;;;;;;5068827;28;20272;-80
2023/01/24 09:08:14;;;;;;;;;;;18.60;43.50;;;;;;5070064;28;19916;-80
2023/01/24 09:10:39;;;;;;;;;;;18.60;43.50;;;;;;5087083;28;20106;-80
2023/01/24 09:13:05;;;;;;;;;;;18.70;43.50;;;;;;5067765;28;20145;-80
2023/01/24 09:15:32;;;;;;;;;;;18.70;43.50;;;;;;5066724;28;20251;-80
2023/01/24 09:18:00;;;;;;;;;;;18.80;43.40;;;;;;5068285;28;20240;-80
2023/01/24 09:20:26;;;;;;;;;;;18.90;43.30;;;;;;5068931;28;20000;-80
2023/01/24 09:22:51;;;;;;;;;;;18.90;43.20;;;;;;5086619;28;19909;-80
2023/01/24 09:25:17;;;;;;;;;;;18.90;43.10;;;;;;5068371;28;20062;-80
2023/01/24 09:27:43;;;;;;;;;;;18.90;43.10;;;;;;5069320;28;19923;-80
2023/01/24 09:30:09;;;;;;;;;;;18.90;43.20;;;;;;5068367;28;19908;-80
2023/01/24 09:32:35;;;;;;;;;;;19.00;43.20;;;;;;5068341;28;19915;-80
2023/01/24 09:35:01;;;;;;;;;;;19.10;43.50;;;;;;5067232;28;19970;-81
2023/01/24 09:37:27;;;;;;;;;;;19.10;43.10;;;;;;5087632;28;20148;-80
2023/01/24 09:39:55;;;;;;;;;;;19.20;43.10;;;;;;5067021;28;19919;-80
2023/01/24 09:42:40;;;;;;;;;;;19.20;43.10;;;;;;5070329;28;20181;-81
2023/01/24 09:45:06;;;;;;;;;;;19.20;43.20;;;;;;5069424;28;19904;-81
2023/01/24 09:47:41;;;;;;;;;;;19.10;43.20;;;;;;5068444;28;19912;-81
2023/01/24 09:50:13;;;;;;;;;;;19.10;43.20;;;;;;5071238;28;19908;-81
2023/01/24 09:52:43;;;;;;;;;;;19.10;43.20;;;;;;5077071;28;19939;-81
2023/01/24 09:55:25;;;;;;;;;;;19.20;43.30;;;;;;5075616;28;19919;-80
2023/01/24 09:57:56;;;;;;;;;;;19.10;43.30;;;;;;5073893;28;19999;-81
2023/01/24 10:00:25;;;;;;;;;;;19.10;43.40;;;;;;5075174;28;19952;-81
2023/01/24 10:02:50;;;;;;;;;;;19.10;43.50;;;;;;5077036;28;19951;-80
2023/01/24 10:05:17;;;;;;;;;;;19.10;43.50;;;;;;5094555;28;19908;-80
2023/01/24 10:07:58;;;;;;;;;;;19.10;43.50;;;;;;5077444;28;19976;-80
2023/01/24 10:10:31;;;;;;;;;;;19.10;43.50;;;;;;5071320;28;19999;-80
2023/01/24 10:13:23;;;;;;;;;;;19.00;43.50;;;;;;5073668;28;20151;-80
2023/01/24 10:15:56;;;;;;;;;;;19.00;43.50;;;;;;5075051;28;19908;-80
2023/01/24 10:18:34;;;;;;;;;;;18.90;43.50;;;;;;5075486;28;20201;-80
2023/01/24 10:21:18;;;;;;;;;;;18.80;43.50;;;;;;5093128;28;19969;-80
2023/01/24 10:23:47;;;;;;;;;;;18.80;43.60;;;;;;5086724;28;20032;-80
2023/01/24 10:26:16;;;;;;;;;;;18.70;43.60;;;;;;5067820;28;20299;-80
2023/01/24 10:28:44;;;;;;;;;;;18.70;43.60;;;;;;5076424;28;19927;-80
2023/01/24 10:31:10;;;;;;;;;;;18.70;43.50;;;;;;5094233;28;19919;-80
2023/01/24 10:33:45;;;;;;;;;;;18.70;43.60;;;;;;5075580;28;20200;-80
2023/01/24 10:36:10;;;;;;;;;;;18.60;43.70;;;;;;5094245;28;19915;-80
2023/01/24 10:38:36;;;;;;;;;;;18.50;43.80;;;;;;5075551;28;19908;-80
2023/01/24 10:41:18;;;;;;;;;;;18.40;43.90;;;;;;5070127;28;19912;-80
2023/01/24 10:43:45;;;;;;;;;;;18.30;44.00;;;;;;5071702;28;19935;-80
2023/01/24 10:46:16;;;;;;;;;;;18.10;44.30;;;;;;5087735;28;19915;-80
2023/01/24 10:48:43;;;;;;;;;;;18.00;44.40;;;;;;5071329;28;20002;-80
2023/01/24 10:51:16;;;;;;;;;;;17.90;44.60;;;;;;5073046;28;19908;-80
2023/01/24 10:53:42;;;;;;;;;;;18.10;44.60;;;;;;5092543;28;19912;-81
2023/01/24 10:56:08;;;;;;;;;;;18.30;44.50;;;;;;5074311;28;19923;-81
2023/01/24 10:58:41;;;;;;;;;;;18.60;44.20;;;;;;5076128;28;20083;-81
2023/01/24 11:01:22;;;;;;;;;;;18.80;44.10;;;;;;5077086;28;20281;-80
2023/01/24 11:03:48;;;;;;;;;;;18.90;44.10;;;;;;5076369;28;20015;-82
2023/01/24 11:06:20;;;;;;;;;;;19.00;44.00;;;;;;5094735;28;19919;-81
2023/01/24 11:08:46;;;;;;;;;;;19.10;44.00;;;;;;5072479;28;19934;-81
2023/01/24 11:11:21;;;;;;;;;;;19.20;43.80;;;;;;5093906;28;19920;-80
2023/01/24 11:13:47;;;;;;;;;;;19.30;43.90;;;;;;5077250;28;20463;-81
2023/01/24 11:16:15;;;;;;;;;;;19.30;43.80;;;;;;5075552;28;20277;-81
2023/01/24 11:19:08;;;;;;;;;;;19.30;43.90;;;;;;5098801;28;20278;-81
2023/01/24 11:21:48;;;;;;;;;;;19.40;44.00;;;;;;5062772;28;20190;-81
2023/01/24 11:24:15;;;;;;;;;;;19.40;43.90;;;;;;5093332;28;20182;-81
2023/01/24 11:26:52;;;;;;;;;;;19.40;43.90;;;;;;5076234;28;20033;-81
2023/01/24 11:29:18;;;;;;;;;;;19.40;43.90;;;;;;5074373;28;19912;-81
2023/01/24 11:31:53;;;;;;;;;;;19.40;44.00;;;;;;5073766;28;19907;-81
2023/01/24 11:34:21;;;;;;;;;;;19.40;44.00;;;;;;5074415;28;19981;-81
2023/01/24 11:36:50;;;;;;;;;;;19.30;44.00;;;;;;5074648;28;19951;-81
2023/01/24 11:39:18;;;;;;;;;;;19.30;44.10;;;;;;5091204;28;20251;-80
2023/01/24 11:41:50;;;;;;;;;;;19.30;44.10;;;;;;5092056;28;19958;-81
2023/01/24 11:44:35;;;;;;;;;;;19.20;44.10;;;;;;5092257;28;19908;-81
2023/01/24 11:47:04;;;;;;;;;;;19.10;44.20;;;;;;5072888;28;19905;-80
2023/01/24 11:49:32;;;;;;;;;;;19.00;44.20;;;;;;5071093;28;19942;-80
2023/01/24 11:52:16;;;;;;;;;;;18.90;44.30;;;;;;5089540;28;20286;-81
2023/01/24 11:54:45;;;;;;;;;;;18.90;44.80;;;;;;5077747;28;19908;-81
2023/01/24 11:57:20;;;;;;;;;;;18.80;44.50;;;;;;5093995;28;20010;-80
2023/01/24 11:59:56;;;;;;;;;;;18.80;44.60;;;;;;5075361;28;19912;-81
2023/01/24 12:02:30;;;;;;;;;;;18.70;44.70;;;;;;5073490;28;19908;-81
2023/01/24 12:05:15;;;;;;;;;;;18.60;44.80;;;;;;5072648;28;19919;-81
2023/01/24 12:07:43;;;;;;;;;;;18.60;45.00;;;;;;5086569;28;19912;-81
2023/01/24 12:10:18;;;;;;;;;;;18.60;45.00;;;;;;5071299;28;20265;-81
2023/01/24 12:12:46;;;;;;;;;;;18.60;45.00;;;;;;5070650;28;19993;-81
2023/01/24 12:15:23;;;;;;;;;;;18.60;45.00;;;;;;5068362;28;20300;-81
2023/01/24 12:18:02;;;;;;;;;;;18.60;45.00;;;;;;5067911;28;19909;-81
2023/01/24 12:20:46;;;;;;;;;;;18.60;45.00;;;;;;5070700;28;20126;-81
2023/01/24 12:23:19;;;;;;;;;;;18.70;44.80;;;;;;5069383;28;20208;-81
2023/01/24 12:25:46;;;;;;;;;;;18.80;44.70;;;;;;5087720;28;20484;-81
2023/01/24 12:28:14;;;;;;;;;;;18.90;44.70;;;;;;5070643;28;20259;-81
2023/01/24 12:30:39;;;;;;;;;;;18.80;44.60;;;;;;5071284;28;19908;-81
2023/01/24 12:33:05;;;;;;;;;;;18.90;44.50;;;;;;5070152;28;20015;-81
2023/01/24 12:35:57;;;;;;;;;;;18.90;44.50;;;;;;5066895;28;19916;-81
2023/01/24 12:38:27;;;;;;;;;;;18.90;44.40;;;;;;5067195;28;19908;-81
2023/01/24 12:41:12;;;;;;;;;;;19.00;44.40;;;;;;5071928;28;19919;-81
2023/01/24 12:43:40;;;;;;;;;;;19.10;44.30;;;;;;5072392;28;20077;-81
2023/01/24 12:46:19;;;;;;;;;;;19.20;44.20;;;;;;5074195;28;19909;-81
2023/01/24 12:48:44;;;;;;;;;;;19.20;44.30;;;;;;5070024;28;19912;-81
2023/01/24 12:51:21;;;;;;;;;;;19.20;44.30;;;;;;5068420;28;20163;-81
2023/01/24 12:53:53;;;;;;;;;;;19.20;44.30;;;;;;5068742;28;19916;-81
2023/01/24 12:56:29;;;;;;;;;;;19.20;44.30;;;;;;5067152;28;19908;-81
2023/01/24 12:58:55;;;;;;;;;;;19.20;44.30;;;;;;5084604;28;20243;-81
2023/01/24 13:01:21;;;;;;;;;;;19.20;44.30;;;;;;5084175;28;20382;-81
2023/01/24 13:04:07;;;;;;;;;;;19.20;44.30;;;;;;5085405;28;19908;-81
2023/01/24 13:06:35;;;;;;;;;;;19.10;44.20;;;;;;5067013;28;20378;-82
2023/01/24 13:09:31;;;;;;;;;;;19.10;44.20;;;;;;5066569;28;20175;-81
2023/01/24 13:11:58;;;;;;;;;;;19.00;44.20;;;;;;4996628;28;19910;-81
2023/01/24 13:14:26;;;;;;;;;;;19.00;44.20;;;;;;5068703;28;20007;-81
2023/01/24 13:17:04;;;;;;;;;;;18.90;44.30;;;;;;5070977;28;20175;-82
2023/01/24 13:19:49;;;;;;;;;;;18.90;44.30;;;;;;5072892;28;19912;-82
2023/01/24 13:22:35;;;;;;;;;;;18.90;44.30;;;;;;5070122;28;19908;-82
2023/01/24 13:25:03;;;;;;;;;;;18.90;44.30;;;;;;5069836;28;20208;-82
2023/01/24 13:27:29;;;;;;;;;;;18.80;44.30;;;;;;5069967;28;20010;-81
2023/01/24 13:29:54;;;;;;;;;;;18.80;44.30;;;;;;5068610;28;19999;-81
2023/01/24 13:32:20;;;;;;;;;;;18.70;44.30;;;;;;5071946;28;19912;-83
2023/01/24 13:34:50;;;;;;;;;;;18.60;44.40;;;;;;5088042;28;19955;-82
2023/01/24 13:37:22;;;;;;;;;;;18.60;44.40;;;;;;5069685;28;20135;-82
2023/01/24 13:40:01;;;;;;;;;;;18.40;44.50;;;;;;5089986;28;19908;-81
2023/01/24 13:42:37;;;;;;;;;;;18.30;44.60;;;;;;5071760;28;20324;-82
2023/01/24 13:45:23;;;;;;;;;;;18.00;44.80;;;;;;5088232;28;19908;-82
2023/01/24 13:47:49;;;;;;;;;;;17.90;45.00;;;;;;5070893;28;20072;-82
2023/01/24 13:50:15;;;;;;;;;;;17.80;45.20;;;;;;5070009;28;20386;-82
2023/01/24 13:52:45;;;;;;;;;;;17.70;45.40;;;;;;5070626;28;19908;-81
2023/01/24 13:55:17;;;;;;;;;;;17.70;45.30;;;;;;5088755;28;19959;-82
2023/01/24 13:57:43;;;;;;;;;;;18.00;45.10;;;;;;5070566;28;19912;-82
2023/01/24 14:00:15;;;;;;;;;;;18.30;44.90;;;;;;5088585;28;20054;-82
2023/01/24 14:02:49;;;;;;;;;;;18.60;44.90;;;;;;5072364;28;20014;-82
2023/01/24 14:05:31;;;;;;;;;;;18.90;44.20;;;;;;5087969;28;20167;-82
2023/01/24 14:08:14;;;;;;;;;;;19.10;44.10;;;;;;5090635;28;20014;-81
2023/01/24 14:10:59;;;;;;;;;;;19.20;44.10;;;;;;5071122;28;19908;-82
2023/01/24 14:13:40;;;;;;;;;;;19.30;43.90;;;;;;5085355;28;19930;-82
2023/01/24 14:16:08;;;;;;;;;;;19.30;43.80;;;;;;5071257;28;20015;-82
2023/01/24 14:18:40;;;;;;;;;;;19.50;43.70;;;;;;5068359;28;20197;-82
2023/01/24 14:21:16;;;;;;;;;;;19.50;43.60;;;;;;5068843;28;20321;-81
2023/01/24 14:23:42;;;;;;;;;;;19.50;43.60;;;;;;5085846;28;19908;-82
2023/01/24 14:26:13;;;;;;;;;;;19.50;43.70;;;;;;5068903;28;20011;-82
2023/01/24 14:28:44;;;;;;;;;;;19.50;43.70;;;;;;5084436;28;19947;-82
2023/01/24 14:31:24;;;;;;;;;;;19.50;43.90;;;;;;5066735;28;19908;-82
2023/01/24 14:33:55;;;;;;;;;;;19.40;43.80;;;;;;5067255;28;19993;-81
2023/01/24 14:36:27;;;;;;;;;;;19.40;44.00;;;;;;5087240;28;19998;-81
2023/01/24 14:39:11;;;;;;;;;;;19.40;44.00;;;;;;5089140;28;19918;-82
2023/01/24 14:41:39;;;;;;;;;;;19.30;44.10;;;;;;5068990;28;19912;-82
2023/01/24 14:44:14;;;;;;;;;;;19.20;44.10;;;;;;5072112;28;19919;-81
2023/01/24 14:46:40;;;;;;;;;;;19.10;44.20;;;;;;5068851;28;20340;-81
2023/01/24 14:49:14;;;;;;;;;;;19.00;44.20;;;;;;5068310;28;20093;-81
2023/01/24 14:51:47;;;;;;;;;;;18.90;44.70;;;;;;5070880;28;19948;-82
2023/01/24 14:54:19;;;;;;;;;;;18.80;44.40;;;;;;5073708;28;20165;-82
2023/01/24 14:56:45;;;;;;;;;;;18.70;44.40;;;;;;5088886;28;20388;-81
2023/01/24 14:59:11;;;;;;;;;;;18.60;44.50;;;;;;5072911;28;19996;-81
2023/01/24 15:01:37;;;;;;;;;;;18.50;44.50;;;;;;5089557;28;20144;-81
2023/01/24 15:04:04;;;;;;;;;;;18.50;44.60;;;;;;5070924;28;19908;-82